createdAt,value
2023-01-10T05:48:12.026Z,6.97
2023-01-10T05:50:43.987Z,10.15
2023-01-10T05:53:16.014Z,10.50
2023-01-10T05:55:58.569Z,9.85
2023-01-10T05:58:30.675Z,7.18
2023-01-10T06:01:02.988Z,8.77
2023-01-10T06:03:35.782Z,6.90
2023-01-10T06:06:08.035Z,7.63
2023-01-10T06:08:41.465Z,5.53
2023-01-10T06:11:13.365Z,7.00
2023-01-10T06:13:45.332Z,6.35
2023-01-10T06:16:17.269Z,3.40
2023-01-10T06:18:49.383Z,5.13
2023-01-10T06:21:21.803Z,3.80
2023-01-10T06:23:54.002Z,3.85
2023-01-10T06:26:26.590Z,3.83
2023-01-10T06:28:59.678Z,5.60
2023-01-10T06:31:31.727Z,4.85
2023-01-10T06:34:03.734Z,3.25
2023-01-10T06:36:35.798Z,4.03
2023-01-10T06:39:07.730Z,12.60
2023-01-10T06:41:40.203Z,3.83
2023-01-10T06:44:12.225Z,5.00
2023-01-10T06:46:44.199Z,4.28
2023-01-10T06:49:16.303Z,5.13
2023-01-10T06:51:48.282Z,3.70
2023-01-10T06:54:20.214Z,4.70
2023-01-10T06:56:52.238Z,3.92
2023-01-10T06:59:24.649Z,3.72
2023-01-10T07:01:56.923Z,3.58
2023-01-10T07:04:29.369Z,4.13
2023-01-10T07:07:01.392Z,3.60
2023-01-10T07:09:33.981Z,4.97
2023-01-10T07:12:06.547Z,5.65
2023-01-10T07:14:38.601Z,3.33
2023-01-10T07:17:11.155Z,4.28
2023-01-10T07:19:43.107Z,3.65
2023-01-10T07:22:15.072Z,3.85
2023-01-10T07:24:47.037Z,3.47
2023-01-10T07:27:18.942Z,4.40
2023-01-10T17:13:11.453Z,15.88
2023-01-10T17:15:45.472Z,14.95
2023-01-10T17:18:20.953Z,10.60
2023-01-10T17:20:53.131Z,9.82
2023-01-10T17:23:29.707Z,10.27
2023-01-10T17:26:03.787Z,19.13
2023-01-10T17:28:36.266Z,16.05
2023-01-10T17:31:09.738Z,17.00
2023-01-10T17:33:42.297Z,22.05
2023-01-10T17:36:14.527Z,20.50
2023-01-10T17:38:46.661Z,24.60
2023-01-10T17:41:18.674Z,14.38
2023-01-10T17:43:51.120Z,19.15
2023-01-10T17:46:23.976Z,16.80
2023-01-10T17:48:57.467Z,17.75
2023-01-10T17:51:29.887Z,25.35
2023-01-10T17:54:02.276Z,19.80
2023-01-10T17:56:34.593Z,21.40
2023-01-10T17:59:07.978Z,15.33
2023-01-10T18:01:42.367Z,16.50
2023-01-10T18:04:15.040Z,25.92
2023-01-10T18:06:47.241Z,17.87
2023-01-10T18:09:19.607Z,17.88
2023-01-10T18:11:51.609Z,21.13
2023-01-10T18:14:38.938Z,22.45
2023-01-10T18:17:12.446Z,24.08
2023-01-10T18:22:35.645Z,26.77
2023-01-10T18:25:08.220Z,24.27
2023-01-10T18:27:42.552Z,22.85
2023-01-10T18:30:18.953Z,27.70
2023-01-10T18:32:53.626Z,31.70
2023-01-10T18:35:28.109Z,24.73
2023-01-10T18:38:00.593Z,23.23
2023-01-10T18:40:32.759Z,26.42
2023-01-10T18:43:04.825Z,27.08
2023-01-10T18:45:37.125Z,26.60
2023-01-10T18:48:10.316Z,30.90
2023-01-10T18:50:44.797Z,22.50
2023-01-10T18:53:18.330Z,19.20
2023-01-10T18:56:01.675Z,16.83
2023-01-10T18:58:39.821Z,17.02
2023-01-10T19:01:17.390Z,31.20
2023-01-10T19:03:50.333Z,17.83
2023-01-10T19:06:22.930Z,21.45
2023-01-10T19:08:55.757Z,23.42
2023-01-10T19:11:27.929Z,26.08
2023-01-10T19:14:00.589Z,27.20
2023-01-10T19:16:32.826Z,16.67
2023-01-10T19:19:09.346Z,22.20
2023-01-10T19:21:42.746Z,25.52
2023-01-10T19:24:27.653Z,18.45
2023-01-10T19:26:59.786Z,12.93
2023-01-10T19:29:32.065Z,19.92
2023-01-10T19:32:04.230Z,17.05
2023-01-10T19:34:36.743Z,16.33
2023-01-10T19:37:09.452Z,20.85
2023-01-10T19:39:42.187Z,15.40
2023-01-10T19:42:14.297Z,19.23
2023-01-10T19:44:46.865Z,17.85
2023-01-10T19:47:22.081Z,18.60
2023-01-10T19:49:56.464Z,17.48
2023-01-10T19:52:30.040Z,13.60
2023-01-10T19:55:02.597Z,16.02
2023-01-10T19:57:35.031Z,20.48
2023-01-10T20:00:08.601Z,15.85
2023-01-10T20:02:44.178Z,20.17
2023-01-10T20:05:16.608Z,18.10
2023-01-10T20:07:50.225Z,15.20
2023-01-10T20:10:22.433Z,17.67
2023-01-10T20:12:54.943Z,11.48
2023-01-10T20:15:27.173Z,10.65
2023-01-10T20:17:59.345Z,13.60
2023-01-10T20:20:31.474Z,11.48
2023-01-10T20:23:06.027Z,14.52
2023-01-10T20:25:38.147Z,16.58
2023-01-10T20:28:10.280Z,13.90
2023-01-10T20:30:43.076Z,15.55
2023-01-10T20:33:15.219Z,17.08
2023-01-10T20:36:13.628Z,14.52
2023-01-10T20:38:46.420Z,16.52
2023-01-10T20:41:24.702Z,12.05
2023-01-10T20:43:57.615Z,9.82
2023-01-10T20:46:32.100Z,14.93
2023-01-10T20:49:04.193Z,12.13
2023-01-10T20:51:37.188Z,13.90
2023-01-10T20:54:10.156Z,14.65
2023-01-10T20:56:42.297Z,10.60
2023-01-10T20:59:14.226Z,15.70
2023-01-10T21:01:46.644Z,12.90
2023-01-10T21:04:18.953Z,11.80
2023-01-10T21:06:51.981Z,9.65
2023-01-10T21:09:24.406Z,9.07
2023-01-10T21:12:07.479Z,10.43
2023-01-10T21:14:49.473Z,14.23
2023-01-10T21:17:22.059Z,11.35
2023-01-10T21:19:54.081Z,6.80
2023-01-10T21:22:28.153Z,6.47
2023-01-10T21:25:00.521Z,11.43
2023-01-10T21:27:32.936Z,7.87
2023-01-10T21:30:06.447Z,10.65
2023-01-10T21:35:10.721Z,10.63
2023-01-10T21:37:42.721Z,10.60
2023-01-10T21:40:14.835Z,10.60
2023-01-10T21:42:47.847Z,11.60
2023-01-10T21:45:21.532Z,11.55
2023-01-10T21:47:53.570Z,8.77
2023-01-10T21:50:25.913Z,9.20
2023-01-10T21:52:58.233Z,12.57
2023-01-10T21:55:30.725Z,13.48
2023-01-10T21:58:03.748Z,17.30
2023-01-10T22:04:17.790Z,14.98
2023-01-10T22:06:50.181Z,13.93
2023-01-10T22:09:24.521Z,9.77
2023-01-10T22:11:56.451Z,8.63
2023-01-10T22:14:29.012Z,11.13
2023-01-10T22:17:01.043Z,10.32
2023-01-10T22:19:33.138Z,6.68
2023-01-10T22:22:05.918Z,8.32
2023-01-10T22:24:39.134Z,10.98
2023-01-10T22:27:11.359Z,7.63
2023-01-10T22:29:43.824Z,7.25
2023-01-10T22:32:16.052Z,8.77
2023-01-10T22:34:48.086Z,6.47
2023-01-10T22:37:20.061Z,7.45
2023-01-10T22:39:52.025Z,6.95
2023-01-10T22:42:24.021Z,11.38
2023-01-10T22:44:56.007Z,10.18
2023-01-10T22:47:28.224Z,7.30
2023-01-10T22:50:00.227Z,5.60
2023-01-10T22:52:32.391Z,11.77
2023-01-10T22:55:04.757Z,6.88
2023-01-10T22:57:46.707Z,9.02
2023-01-10T23:00:20.582Z,4.85
2023-01-10T23:02:52.521Z,11.27
2023-01-10T23:05:25.208Z,6.80
2023-01-10T23:07:57.219Z,8.83
2023-01-10T23:10:30.998Z,9.27
2023-01-10T23:13:05.112Z,7.50
2023-01-10T23:15:37.233Z,6.80
2023-01-10T23:18:09.763Z,8.60
2023-01-10T23:20:41.828Z,7.15
2023-01-10T23:23:14.054Z,7.65
2023-01-10T23:25:46.597Z,5.22
2023-01-10T23:28:18.557Z,5.97
2023-01-10T23:30:51.480Z,6.07
2023-01-10T23:33:23.576Z,4.97
2023-01-10T23:35:55.593Z,7.28
2023-01-10T23:38:28.063Z,4.97
2023-01-10T23:41:00.543Z,4.78
2023-01-10T23:43:33.619Z,5.40
2023-01-10T23:46:06.456Z,7.35
2023-01-10T23:48:39.138Z,4.07
2023-01-10T23:51:11.573Z,4.25
2023-01-10T23:53:43.624Z,4.57
2023-01-10T23:56:15.610Z,4.53
2023-01-10T23:58:52.659Z,4.97
